地図

経路データ

SID SEASON NUMBER BASIN SUBBASIN NAME ISO_TIME NATURE LAT LON WMO_WIND WMO_PRES WMO_AGENCY TRACK_TYPE DIST2LAND LANDFALL IFLAG USA_AGENCY USA_ATCF_ID USA_LAT USA_LON USA_RECORD USA_STATUS USA_WIND USA_PRES USA_SSHS USA_R34_NE USA_R34_SE USA_R34_SW USA_R34_NW USA_R50_NE USA_R50_SE USA_R50_SW USA_R50_NW USA_R64_NE USA_R64_SE USA_R64_SW USA_R64_NW USA_POCI USA_ROCI USA_RMW USA_EYE TOKYO_LAT TOKYO_LON TOKYO_GRADE TOKYO_WIND TOKYO_PRES TOKYO_R50_DIR TOKYO_R50_LONG TOKYO_R50_SHORT TOKYO_R30_DIR TOKYO_R30_LONG TOKYO_R30_SHORT TOKYO_LAND CMA_LAT CMA_LON CMA_CAT CMA_WIND CMA_PRES HKO_LAT HKO_LON HKO_CAT HKO_WIND HKO_PRES NEWDELHI_LAT NEWDELHI_LON NEWDELHI_GRADE NEWDELHI_WIND NEWDELHI_PRES NEWDELHI_CI NEWDELHI_DP NEWDELHI_POCI REUNION_LAT REUNION_LON REUNION_TYPE REUNION_WIND REUNION_PRES REUNION_TNUM REUNION_CI REUNION_RMW REUNION_R34_NE REUNION_R34_SE REUNION_R34_SW REUNION_R34_NW REUNION_R50_NE REUNION_R50_SE REUNION_R50_SW REUNION_R50_NW REUNION_R64_NE REUNION_R64_SE REUNION_R64_SW REUNION_R64_NW BOM_LAT BOM_LON BOM_TYPE BOM_WIND BOM_PRES BOM_TNUM BOM_CI BOM_RMW BOM_R34_NE BOM_R34_SE BOM_R34_SW BOM_R34_NW BOM_R50_NE BOM_R50_SE BOM_R50_SW BOM_R50_NW BOM_R64_NE BOM_R64_SE BOM_R64_SW BOM_R64_NW BOM_ROCI BOM_POCI BOM_EYE BOM_POS_METHOD BOM_PRES_METHOD NADI_LAT NADI_LON NADI_CAT NADI_WIND NADI_PRES WELLINGTON_LAT WELLINGTON_LON WELLINGTON_WIND WELLINGTON_PRES DS824_LAT DS824_LON DS824_STAGE DS824_WIND DS824_PRES TD9636_LAT TD9636_LON TD9636_STAGE TD9636_WIND TD9636_PRES TD9635_LAT TD9635_LON TD9635_WIND TD9635_PRES TD9635_ROCI NEUMANN_LAT NEUMANN_LON NEUMANN_CLASS NEUMANN_WIND NEUMANN_PRES MLC_LAT MLC_LON MLC_CLASS MLC_WIND MLC_PRES USA_GUST BOM_GUST BOM_GUST_PER REUNION_GUST REUNION_GUST_PER USA_SEAHGT USA_SEARAD_NE USA_SEARAD_SE USA_SEARAD_SW USA_SEARAD_NW STORM_SPEED STORM_DIR
1885052S13055 1885 11 SI MM NOT_NAMED 1885-02-21 06:00:00 NR -13.2000 54.6000 reunion main 491 491 _____O________ -1 -13.2000 54.6000 99 9.90000 1 230
1885052S13055 1885 11 SI MM NOT_NAMED 1885-02-21 09:00:00 NR -13.2503 54.5498 main 479 479 _____P________ -1 -13.2503 54.5498 99 1 225
1885052S13055 1885 11 SI MM NOT_NAMED 1885-02-21 12:00:00 NR -13.3042 54.4948 main 479 466 _____P________ -1 -13.3042 54.4948 99 2 225
1885052S13055 1885 11 SI MM NOT_NAMED 1885-02-21 15:00:00 NR -13.3652 54.4304 main 466 466 _____P________ -1 -13.3652 54.4304 99 2 215
1885052S13055 1885 11 SI MM NOT_NAMED 1885-02-21 18:00:00 NR -13.4294 54.4015 main 466 451 _____P____O___ -1 -13.4368 54.3518 99 -13.4000 54.6000 7 2 210
1885052S13055 1885 11 SI MM NOT_NAMED 1885-02-21 21:00:00 NR -13.5296 54.3325 main 451 437 _____P____P___ -1 -13.5225 54.2543 99 -13.5437 54.4891 7 3 216
1885052S13055 1885 11 SI MM NOT_NAMED 1885-02-22 00:00:00 NR -13.6534 54.2313 main 432 418 _____P____P___ -1 -13.6260 54.1330 99 -13.6899 54.3625 7 4 221
1885052S13055 1885 11 SI MM NOT_NAMED 1885-02-22 03:00:00 NR -13.7959 54.0939 main 418 393 _____P____P___ -1 -13.7506 53.9832 99 -13.8411 54.2047 7 4 227
1885052S13055 1885 11 SI MM NOT_NAMED 1885-02-22 06:00:00 NR -13.9500 53.9000 reunion main 393 365 _____O____O___ -1 -13.9000 53.8000 99 9.90000 -14.0000 54.0000 7 5 232
1885052S13055 1885 11 SI MM NOT_NAMED 1885-02-22 09:00:00 NR -14.1230 53.6597 main 365 327 _____P____P___ -1 -14.0765 53.5805 99 -14.1695 53.7390 7 6 234
1885052S13055 1885 11 SI MM NOT_NAMED 1885-02-22 12:00:00 NR -14.3170 53.3832 main 327 290 _____P____P___ -1 -14.2788 53.3289 99 -14.3552 53.4374 7 7 234
1885052S13055 1885 11 SI MM NOT_NAMED 1885-02-22 15:00:00 NR -14.5339 53.0844 main 290 251 _____P____P___ -1 -14.5045 53.0517 99 -14.5632 53.1170 7 7 232
1885052S13055 1885 11 SI MM NOT_NAMED 1885-02-22 18:00:00 NR -14.7755 52.7775 main 251 215 _____P____O___ -1 -14.7510 52.7550 99 -14.8000 52.8000 7 8 229
1885052S13055 1885 11 SI MM NOT_NAMED 1885-02-22 21:00:00 NR -15.0436 52.4835 main 215 182 _____P____P___ -1 -15.0162 52.4452 99 -15.0711 52.5217 7 8 225
1885052S13055 1885 11 SI MM NOT_NAMED 1885-02-23 00:00:00 NR -15.3337 52.1891 main 182 151 _____P____P___ -1 -15.2976 52.1285 99 -15.3698 52.2498 7 8 224
1885052S13055 1885 11 SI MM NOT_NAMED 1885-02-23 03:00:00 NR -15.6382 51.8946 main 151 130 _____P____P___ -1 -15.5929 51.8113 99 -15.6836 51.9779 7 8 223
1885052S13055 1885 11 SI MM NOT_NAMED 1885-02-23 06:00:00 NR -15.9500 51.6000 reunion main 130 115 _____O____O___ -1 -15.9000 51.5000 99 9.90000 -16.0000 51.7000 7 9 223
1885052S13055 1885 11 SI MM NOT_NAMED 1885-02-23 09:00:00 NR -16.2656 51.2930 main 120 102 _____P____P___ -1 -16.2434 51.1872 99 -16.2878 51.3988 7 9 223
1885052S13055 1885 11 SI MM NOT_NAMED 1885-02-23 12:00:00 NR -16.5919 50.9822 main 108 96 _____P____P___ -1 -16.6063 50.8723 99 -16.5775 51.0921 7 9 222
1885052S13055 1885 11 SI MM NOT_NAMED 1885-02-23 15:00:00 NR -16.9283 50.6754 main 96 77 _____P____P___ -1 -16.9781 50.5615 99 -16.8785 50.7894 7 9 220
1885052S13055 1885 11 SI MM NOT_NAMED 1885-02-23 18:00:00 NR -17.2741 50.3806 main 84 64 _____P____O___ -1 -17.3482 50.2613 99 -17.2000 50.5000 7 9 218
1885052S13055 1885 11 SI MM NOT_NAMED 1885-02-23 21:00:00 NR -17.6274 50.1045 main 64 42 _____P____P___ -1 -17.7060 49.9783 99 -17.5488 50.2308 7 9 216
1885052S13055 1885 11 SI MM NOT_NAMED 1885-02-24 00:00:00 NR -17.9892 49.8302 main 42 21 _____P____P___ -1 -18.0409 49.7192 99 -17.9201 49.9784 7 9 216
1885052S13055 1885 11 SI MM NOT_NAMED 1885-02-24 03:00:00 NR -18.3304 49.5728 main 23 15 _____P____P___ -1 -18.3424 49.4908 99 -18.3064 49.7367 7 8 216
1885052S13055 1885 11 SI MM NOT_NAMED 1885-02-24 06:00:00 NR -18.6200 49.3400 reunion main 10 0 _____O____O___ -1 -18.6000 49.3000 99 9.90000 -18.7000 49.5000 7 6 220
1885052S13055 1885 11 SI MM NOT_NAMED 1885-02-24 09:00:00 NR -18.8061 49.1517 main 10 0 _____P________ -1 -18.8061 49.1517 99 7 4 219
1885052S13055 1885 11 SI MM NOT_NAMED 1885-02-24 12:00:00 NR -18.9646 49.0425 main 0 0 _____P________ -1 -18.9646 49.0425 99 7 3 212
1885052S13055 1885 11 SI MM NOT_NAMED 1885-02-24 15:00:00 NR -19.0825 48.9671 main 0 0 _____P________ -1 -19.0825 48.9671 99 7 2 210
1885052S13055 1885 11 SI MM NOT_NAMED 1885-02-24 18:00:00 NR -19.1666 48.9198 main 0 0 _____P________ -1 -19.1666 48.9198 99 2 207
1885052S13055 1885 11 SI MM NOT_NAMED 1885-02-24 21:00:00 NR -19.2236 48.8951 main 0 0 _____P________ -1 -19.2236 48.8951 99 1 206
1885052S13055 1885 11 SI MM NOT_NAMED 1885-02-25 00:00:00 NR -19.2603 48.8873 main 0 0 _____P________ -1 -19.2603 48.8873 99 1 0
1885052S13055 1885 11 SI MM NOT_NAMED 1885-02-25 03:00:00 NR -19.2835 48.8908 main 0 0 _____P________ -1 -19.2835 48.8908 99 0 0
1885052S13055 1885 11 SI MM NOT_NAMED 1885-02-25 06:00:00 NR -19.3000 48.9000 reunion main 0 _____O________ -1 -19.3000 48.9000 99 9.90000 0 0

IBTrACS Databaseについて

本データベースは、米国NOAAが公開する1842年以降の世界の熱帯低気圧のベストトラックデータアーカイブInternational Best Track Archive for Climate Stewardship (IBTrACS)を、ウェブで閲覧しやすい形式に変換したものです。

最終更新日:2021-11-26